sensor_id;sensor_type;location;lat;lon;timestamp;P1;durP1;ratioP1;P2;durP2;ratioP2
2053;SDS011;1032;52.542;13.440;2023-05-10T00:00:48;9.40;;;6.33;;
2053;SDS011;1032;52.542;13.440;2023-05-10T00:03:15;7.73;;;5.83;;
2053;SDS011;1032;52.542;13.440;2023-05-10T00:05:42;6.80;;;6.13;;
2053;SDS011;1032;52.542;13.440;2023-05-10T00:08:09;6.60;;;5.90;;
2053;SDS011;1032;52.542;13.440;2023-05-10T00:10:37;8.33;;;6.87;;
2053;SDS011;1032;52.542;13.440;2023-05-10T00:13:03;9.63;;;6.70;;
2053;SDS011;1032;52.542;13.440;2023-05-10T00:15:30;10.10;;;6.90;;
2053;SDS011;1032;52.542;13.440;2023-05-10T00:17:57;7.10;;;5.87;;
2053;SDS011;1032;52.542;13.440;2023-05-10T00:20:23;7.20;;;6.50;;
2053;SDS011;1032;52.542;13.440;2023-05-10T00:22:50;7.90;;;6.20;;
2053;SDS011;1032;52.542;13.440;2023-05-10T00:25:17;7.57;;;6.40;;
2053;SDS011;1032;52.542;13.440;2023-05-10T00:27:45;10.50;;;7.23;;
2053;SDS011;1032;52.542;13.440;2023-05-10T00:30:11;6.43;;;5.83;;
2053;SDS011;1032;52.542;13.440;2023-05-10T00:32:38;6.73;;;5.60;;
2053;SDS011;1032;52.542;13.440;2023-05-10T00:35:05;7.60;;;6.67;;
2053;SDS011;1032;52.542;13.440;2023-05-10T00:37:32;6.63;;;5.60;;
2053;SDS011;1032;52.542;13.440;2023-05-10T00:39:59;8.20;;;6.67;;
2053;SDS011;1032;52.542;13.440;2023-05-10T00:42:26;7.10;;;6.40;;
2053;SDS011;1032;52.542;13.440;2023-05-10T00:44:55;6.70;;;6.00;;
2053;SDS011;1032;52.542;13.440;2023-05-10T00:47:22;8.13;;;6.80;;
2053;SDS011;1032;52.542;13.440;2023-05-10T00:49:49;7.27;;;6.50;;
2053;SDS011;1032;52.542;13.440;2023-05-10T00:52:16;12.30;;;7.57;;
2053;SDS011;1032;52.542;13.440;2023-05-10T00:54:42;11.70;;;6.10;;
2053;SDS011;1032;52.542;13.440;2023-05-10T00:57:10;6.97;;;6.27;;
2053;SDS011;1032;52.542;13.440;2023-05-10T00:59:37;8.70;;;6.93;;
2053;SDS011;1032;52.542;13.440;2023-05-10T01:02:05;8.20;;;6.63;;
2053;SDS011;1032;52.542;13.440;2023-05-10T01:04:32;10.40;;;5.83;;
2053;SDS011;1032;52.542;13.440;2023-05-10T01:06:59;6.80;;;6.20;;
2053;SDS011;1032;52.542;13.440;2023-05-10T01:09:26;7.40;;;6.37;;
2053;SDS011;1032;52.542;13.440;2023-05-10T01:11:53;11.17;;;6.23;;
2053;SDS011;1032;52.542;13.440;2023-05-10T01:14:21;8.33;;;7.53;;
2053;SDS011;1032;52.542;13.440;2023-05-10T01:16:48;7.30;;;6.60;;
2053;SDS011;1032;52.542;13.440;2023-05-10T01:19:18;9.93;;;6.17;;
2053;SDS011;1032;52.542;13.440;2023-05-10T01:21:49;7.57;;;6.80;;
2053;SDS011;1032;52.542;13.440;2023-05-10T01:27:38;6.53;;;5.50;;
2053;SDS011;1032;52.542;13.440;2023-05-10T01:30:30;6.27;;;5.70;;
2053;SDS011;1032;52.542;13.440;2023-05-10T01:33:14;8.47;;;6.30;;
2053;SDS011;1032;52.542;13.440;2023-05-10T01:35:46;9.10;;;6.53;;
2053;SDS011;1032;52.542;13.440;2023-05-10T01:38:18;6.90;;;6.10;;
2053;SDS011;1032;52.542;13.440;2023-05-10T01:40:54;8.33;;;7.00;;
2053;SDS011;1032;52.542;13.440;2023-05-10T01:43:32;6.70;;;6.00;;
2053;SDS011;1032;52.542;13.440;2023-05-10T01:46:03;8.20;;;6.73;;
2053;SDS011;1032;52.542;13.440;2023-05-10T01:48:37;7.00;;;6.13;;
2053;SDS011;1032;52.542;13.440;2023-05-10T01:51:06;6.73;;;6.03;;
2053;SDS011;1032;52.542;13.440;2023-05-10T01:53:34;7.37;;;6.57;;
2053;SDS011;1032;52.542;13.440;2023-05-10T01:56:03;8.17;;;6.90;;
2053;SDS011;1032;52.542;13.440;2023-05-10T01:58:31;8.87;;;6.50;;
2053;SDS011;1032;52.542;13.440;2023-05-10T02:01:01;6.90;;;6.20;;
2053;SDS011;1032;52.542;13.440;2023-05-10T02:03:30;6.73;;;6.13;;
2053;SDS011;1032;52.542;13.440;2023-05-10T02:05:59;8.23;;;6.33;;
2053;SDS011;1032;52.542;13.440;2023-05-10T02:08:26;7.63;;;6.70;;
2053;SDS011;1032;52.542;13.440;2023-05-10T02:10:54;8.80;;;7.83;;
2053;SDS011;1032;52.542;13.440;2023-05-10T02:13:22;10.23;;;6.60;;
2053;SDS011;1032;52.542;13.440;2023-05-10T02:15:50;11.40;;;6.53;;
2053;SDS011;1032;52.542;13.440;2023-05-10T02:18:19;7.40;;;5.93;;
2053;SDS011;1032;52.542;13.440;2023-05-10T02:20:46;6.60;;;5.83;;
2053;SDS011;1032;52.542;13.440;2023-05-10T02:23:15;6.53;;;5.87;;
2053;SDS011;1032;52.542;13.440;2023-05-10T02:25:44;9.53;;;6.43;;
2053;SDS011;1032;52.542;13.440;2023-05-10T02:28:12;8.43;;;6.30;;
2053;SDS011;1032;52.542;13.440;2023-05-10T02:30:41;8.57;;;6.17;;
2053;SDS011;1032;52.542;13.440;2023-05-10T02:33:09;7.37;;;6.30;;
2053;SDS011;1032;52.542;13.440;2023-05-10T02:35:37;8.60;;;6.53;;
2053;SDS011;1032;52.542;13.440;2023-05-10T02:38:04;11.00;;;7.00;;
2053;SDS011;1032;52.542;13.440;2023-05-10T02:40:34;8.87;;;7.00;;
2053;SDS011;1032;52.542;13.440;2023-05-10T02:43:02;8.37;;;5.80;;
2053;SDS011;1032;52.542;13.440;2023-05-10T02:45:31;8.13;;;6.30;;
2053;SDS011;1032;52.542;13.440;2023-05-10T02:48:01;7.10;;;6.00;;
2053;SDS011;1032;52.542;13.440;2023-05-10T02:50:28;8.13;;;5.70;;
2053;SDS011;1032;52.542;13.440;2023-05-10T02:52:59;6.70;;;6.10;;
2053;SDS011;1032;52.542;13.440;2023-05-10T02:55:31;6.43;;;5.60;;
2053;SDS011;1032;52.542;13.440;2023-05-10T02:58:02;14.77;;;7.27;;
2053;SDS011;1032;52.542;13.440;2023-05-10T03:00:29;11.10;;;6.30;;
2053;SDS011;1032;52.542;13.440;2023-05-10T03:02:57;12.13;;;6.73;;
2053;SDS011;1032;52.542;13.440;2023-05-10T03:05:25;8.90;;;6.50;;
2053;SDS011;1032;52.542;13.440;2023-05-10T03:07:52;9.43;;;6.27;;
2053;SDS011;1032;52.542;13.440;2023-05-10T03:10:20;8.60;;;6.77;;
2053;SDS011;1032;52.542;13.440;2023-05-10T03:12:52;6.90;;;5.80;;
2053;SDS011;1032;52.542;13.440;2023-05-10T03:15:33;10.00;;;6.00;;
2053;SDS011;1032;52.542;13.440;2023-05-10T03:18:23;10.00;;;6.03;;
2053;SDS011;1032;52.542;13.440;2023-05-10T03:20:55;10.47;;;6.60;;
2053;SDS011;1032;52.542;13.440;2023-05-10T03:23:26;8.20;;;6.40;;
2053;SDS011;1032;52.542;13.440;2023-05-10T03:25:56;8.67;;;6.23;;
2053;SDS011;1032;52.542;13.440;2023-05-10T03:28:25;8.83;;;6.60;;
2053;SDS011;1032;52.542;13.440;2023-05-10T03:30:52;6.20;;;5.60;;
2053;SDS011;1032;52.542;13.440;2023-05-10T03:33:20;10.03;;;5.73;;
2053;SDS011;1032;52.542;13.440;2023-05-10T03:35:47;5.97;;;5.17;;
2053;SDS011;1032;52.542;13.440;2023-05-10T03:38:14;8.27;;;6.20;;
2053;SDS011;1032;52.542;13.440;2023-05-10T03:40:41;6.80;;;5.77;;
2053;SDS011;1032;52.542;13.440;2023-05-10T03:43:08;7.30;;;5.40;;
2053;SDS011;1032;52.542;13.440;2023-05-10T03:45:36;8.67;;;5.67;;
2053;SDS011;1032;52.542;13.440;2023-05-10T03:48:02;7.20;;;5.47;;
2053;SDS011;1032;52.542;13.440;2023-05-10T03:50:29;8.53;;;6.40;;
2053;SDS011;1032;52.542;13.440;2023-05-10T03:52:56;8.37;;;6.90;;
2053;SDS011;1032;52.542;13.440;2023-05-10T03:55:23;8.90;;;5.90;;
2053;SDS011;1032;52.542;13.440;2023-05-10T03:57:49;8.20;;;5.83;;
2053;SDS011;1032;52.542;13.440;2023-05-10T04:00:16;11.67;;;6.70;;
2053;SDS011;1032;52.542;13.440;2023-05-10T04:02:47;12.97;;;5.97;;
2053;SDS011;1032;52.542;13.440;2023-05-10T04:05:17;11.83;;;6.30;;
2053;SDS011;1032;52.542;13.440;2023-05-10T04:07:44;11.57;;;6.53;;
2053;SDS011;1032;52.542;13.440;2023-05-10T04:10:12;6.87;;;5.90;;
2053;SDS011;1032;52.542;13.440;2023-05-10T04:12:38;6.40;;;5.50;;
2053;SDS011;1032;52.542;13.440;2023-05-10T04:15:05;7.40;;;5.30;;
2053;SDS011;1032;52.542;13.440;2023-05-10T04:17:33;8.07;;;5.90;;
2053;SDS011;1032;52.542;13.440;2023-05-10T04:20:01;6.90;;;4.70;;
2053;SDS011;1032;52.542;13.440;2023-05-10T04:22:28;9.20;;;5.80;;
2053;SDS011;1032;52.542;13.440;2023-05-10T04:24:55;8.57;;;4.87;;
2053;SDS011;1032;52.542;13.440;2023-05-10T04:27:22;9.47;;;5.40;;
2053;SDS011;1032;52.542;13.440;2023-05-10T04:29:48;8.90;;;6.47;;
2053;SDS011;1032;52.542;13.440;2023-05-10T04:32:15;7.60;;;5.30;;
2053;SDS011;1032;52.542;13.440;2023-05-10T04:34:42;7.37;;;5.63;;
2053;SDS011;1032;52.542;13.440;2023-05-10T04:37:10;7.73;;;6.53;;
2053;SDS011;1032;52.542;13.440;2023-05-10T04:39:36;8.53;;;4.87;;
2053;SDS011;1032;52.542;13.440;2023-05-10T04:42:03;7.03;;;5.30;;
2053;SDS011;1032;52.542;13.440;2023-05-10T04:44:30;6.20;;;4.70;;
2053;SDS011;1032;52.542;13.440;2023-05-10T04:46:57;8.07;;;5.13;;
2053;SDS011;1032;52.542;13.440;2023-05-10T04:49:24;10.17;;;5.70;;
2053;SDS011;1032;52.542;13.440;2023-05-10T04:51:50;9.03;;;5.23;;
2053;SDS011;1032;52.542;13.440;2023-05-10T04:54:18;7.80;;;5.20;;
2053;SDS011;1032;52.542;13.440;2023-05-10T04:56:45;5.70;;;5.10;;
2053;SDS011;1032;52.542;13.440;2023-05-10T04:59:11;8.87;;;5.43;;
2053;SDS011;1032;52.542;13.440;2023-05-10T05:01:38;8.90;;;5.77;;
2053;SDS011;1032;52.542;13.440;2023-05-10T05:04:05;6.63;;;5.17;;
2053;SDS011;1032;52.542;13.440;2023-05-10T05:06:31;6.33;;;4.90;;
2053;SDS011;1032;52.542;13.440;2023-05-10T05:08:58;6.60;;;5.00;;
2053;SDS011;1032;52.542;13.440;2023-05-10T05:11:26;5.23;;;4.57;;
2053;SDS011;1032;52.542;13.440;2023-05-10T05:13:53;6.07;;;4.30;;
2053;SDS011;1032;52.542;13.440;2023-05-10T05:16:19;7.30;;;5.70;;
2053;SDS011;1032;52.542;13.440;2023-05-10T05:18:46;6.00;;;5.00;;
2053;SDS011;1032;52.542;13.440;2023-05-10T05:21:13;9.70;;;5.43;;
2053;SDS011;1032;52.542;13.440;2023-05-10T05:23:40;6.97;;;5.33;;
2053;SDS011;1032;52.542;13.440;2023-05-10T05:26:07;10.97;;;5.07;;
2053;SDS011;1032;52.542;13.440;2023-05-10T05:28:35;6.77;;;4.90;;
2053;SDS011;1032;52.542;13.440;2023-05-10T05:31:03;6.83;;;5.63;;
2053;SDS011;1032;52.542;13.440;2023-05-10T05:33:29;5.63;;;4.67;;
2053;SDS011;1032;52.542;13.440;2023-05-10T05:35:56;5.93;;;4.47;;
2053;SDS011;1032;52.542;13.440;2023-05-10T05:38:22;6.97;;;5.07;;
2053;SDS011;1032;52.542;13.440;2023-05-10T05:40:49;8.40;;;5.20;;
2053;SDS011;1032;52.542;13.440;2023-05-10T05:43:16;6.13;;;4.47;;
2053;SDS011;1032;52.542;13.440;2023-05-10T05:45:44;9.60;;;4.23;;
2053;SDS011;1032;52.542;13.440;2023-05-10T05:48:10;8.83;;;4.30;;
2053;SDS011;1032;52.542;13.440;2023-05-10T05:50:37;5.83;;;4.00;;
2053;SDS011;1032;52.542;13.440;2023-05-10T05:53:03;8.10;;;4.17;;
2053;SDS011;1032;52.542;13.440;2023-05-10T05:55:30;5.97;;;4.20;;
2053;SDS011;1032;52.542;13.440;2023-05-10T05:57:57;5.13;;;4.40;;
2053;SDS011;1032;52.542;13.440;2023-05-10T06:00:24;4.67;;;3.80;;
2053;SDS011;1032;52.542;13.440;2023-05-10T06:02:52;5.40;;;3.73;;
2053;SDS011;1032;52.542;13.440;2023-05-10T06:05:18;6.70;;;3.70;;
2053;SDS011;1032;52.542;13.440;2023-05-10T06:07:46;6.17;;;4.50;;
2053;SDS011;1032;52.542;13.440;2023-05-10T06:10:12;4.77;;;3.93;;
2053;SDS011;1032;52.542;13.440;2023-05-10T06:12:39;6.37;;;4.10;;
2053;SDS011;1032;52.542;13.440;2023-05-10T06:15:06;5.47;;;3.63;;
2053;SDS011;1032;52.542;13.440;2023-05-10T06:17:34;3.97;;;3.40;;
2053;SDS011;1032;52.542;13.440;2023-05-10T06:20:02;6.47;;;4.37;;
2053;SDS011;1032;52.542;13.440;2023-05-10T06:22:30;7.83;;;4.40;;
2053;SDS011;1032;52.542;13.440;2023-05-10T06:24:56;6.70;;;3.43;;
2053;SDS011;1032;52.542;13.440;2023-05-10T06:27:23;5.77;;;3.60;;
2053;SDS011;1032;52.542;13.440;2023-05-10T06:29:50;9.00;;;3.90;;
2053;SDS011;1032;52.542;13.440;2023-05-10T06:32:16;8.07;;;3.53;;
2053;SDS011;1032;52.542;13.440;2023-05-10T06:34:43;8.13;;;3.40;;
2053;SDS011;1032;52.542;13.440;2023-05-10T06:37:11;4.77;;;2.87;;
2053;SDS011;1032;52.542;13.440;2023-05-10T06:39:38;4.60;;;3.10;;
2053;SDS011;1032;52.542;13.440;2023-05-10T06:42:04;7.40;;;3.87;;
2053;SDS011;1032;52.542;13.440;2023-05-10T06:44:31;5.60;;;3.50;;
2053;SDS011;1032;52.542;13.440;2023-05-10T06:46:58;6.10;;;3.77;;
2053;SDS011;1032;52.542;13.440;2023-05-10T06:49:25;8.40;;;3.20;;
2053;SDS011;1032;52.542;13.440;2023-05-10T06:51:52;5.13;;;3.87;;
2053;SDS011;1032;52.542;13.440;2023-05-10T06:54:20;12.60;;;3.50;;
2053;SDS011;1032;52.542;13.440;2023-05-10T06:56:46;6.80;;;3.47;;
2053;SDS011;1032;52.542;13.440;2023-05-10T06:59:13;5.43;;;3.17;;
2053;SDS011;1032;52.542;13.440;2023-05-10T07:01:41;5.13;;;3.37;;
2053;SDS011;1032;52.542;13.440;2023-05-10T07:04:08;8.27;;;3.50;;
2053;SDS011;1032;52.542;13.440;2023-05-10T07:06:34;4.40;;;3.30;;
2053;SDS011;1032;52.542;13.440;2023-05-10T07:09:01;7.27;;;3.90;;
2053;SDS011;1032;52.542;13.440;2023-05-10T07:11:29;4.70;;;3.53;;
2053;SDS011;1032;52.542;13.440;2023-05-10T07:13:55;5.57;;;3.40;;
2053;SDS011;1032;52.542;13.440;2023-05-10T07:16:22;9.37;;;3.30;;
2053;SDS011;1032;52.542;13.440;2023-05-10T07:18:49;4.50;;;2.90;;
2053;SDS011;1032;52.542;13.440;2023-05-10T07:21:15;3.83;;;2.80;;
2053;SDS011;1032;52.542;13.440;2023-05-10T07:23:42;5.03;;;2.93;;
2053;SDS011;1032;52.542;13.440;2023-05-10T07:26:09;4.30;;;2.93;;
2053;SDS011;1032;52.542;13.440;2023-05-10T07:28:37;8.10;;;3.23;;
2053;SDS011;1032;52.542;13.440;2023-05-10T07:31:04;6.83;;;3.27;;
2053;SDS011;1032;52.542;13.440;2023-05-10T07:33:30;6.33;;;3.50;;
2053;SDS011;1032;52.542;13.440;2023-05-10T07:35:57;9.03;;;4.10;;
2053;SDS011;1032;52.542;13.440;2023-05-10T07:38:24;17.88;;;12.70;;
2053;SDS011;1032;52.542;13.440;2023-05-10T07:40:50;12.10;;;10.07;;
2053;SDS011;1032;52.542;13.440;2023-05-10T07:43:17;12.80;;;4.00;;
2053;SDS011;1032;52.542;13.440;2023-05-10T07:45:45;5.40;;;3.50;;
2053;SDS011;1032;52.542;13.440;2023-05-10T07:48:11;6.40;;;3.67;;
2053;SDS011;1032;52.542;13.440;2023-05-10T07:50:38;5.30;;;3.37;;
2053;SDS011;1032;52.542;13.440;2023-05-10T07:53:05;6.00;;;3.20;;
2053;SDS011;1032;52.542;13.440;2023-05-10T07:55:31;7.40;;;3.80;;
2053;SDS011;1032;52.542;13.440;2023-05-10T07:57:58;9.30;;;4.10;;
2053;SDS011;1032;52.542;13.440;2023-05-10T08:00:26;4.80;;;3.17;;
2053;SDS011;1032;52.542;13.440;2023-05-10T08:02:54;12.73;;;3.37;;
2053;SDS011;1032;52.542;13.440;2023-05-10T08:05:20;6.93;;;3.63;;
2053;SDS011;1032;52.542;13.440;2023-05-10T08:07:47;4.37;;;2.97;;
2053;SDS011;1032;52.542;13.440;2023-05-10T08:10:13;6.43;;;3.10;;
2053;SDS011;1032;52.542;13.440;2023-05-10T08:12:40;5.70;;;3.20;;
2053;SDS011;1032;52.542;13.440;2023-05-10T08:15:07;6.77;;;3.20;;
2053;SDS011;1032;52.542;13.440;2023-05-10T08:17:35;7.73;;;3.20;;
2053;SDS011;1032;52.542;13.440;2023-05-10T08:20:03;7.20;;;3.27;;
2053;SDS011;1032;52.542;13.440;2023-05-10T08:22:30;4.57;;;3.60;;
2053;SDS011;1032;52.542;13.440;2023-05-10T08:24:56;4.20;;;3.40;;
2053;SDS011;1032;52.542;13.440;2023-05-10T08:27:23;5.87;;;3.80;;
2053;SDS011;1032;52.542;13.440;2023-05-10T08:29:50;3.83;;;3.23;;
2053;SDS011;1032;52.542;13.440;2023-05-10T08:32:16;4.90;;;3.73;;
2053;SDS011;1032;52.542;13.440;2023-05-10T08:34:43;9.00;;;3.03;;
2053;SDS011;1032;52.542;13.440;2023-05-10T08:37:11;12.53;;;5.67;;
2053;SDS011;1032;52.542;13.440;2023-05-10T08:39:38;5.10;;;3.37;;
2053;SDS011;1032;52.542;13.440;2023-05-10T08:42:04;7.20;;;3.67;;
2053;SDS011;1032;52.542;13.440;2023-05-10T08:44:34;8.30;;;3.00;;
2053;SDS011;1032;52.542;13.440;2023-05-10T08:47:02;4.80;;;3.37;;
2053;SDS011;1032;52.542;13.440;2023-05-10T08:49:31;3.90;;;3.00;;
2053;SDS011;1032;52.542;13.440;2023-05-10T08:51:59;4.30;;;3.10;;
2053;SDS011;1032;52.542;13.440;2023-05-10T08:54:30;3.73;;;3.40;;
2053;SDS011;1032;52.542;13.440;2023-05-10T08:56:57;9.90;;;3.17;;
2053;SDS011;1032;52.542;13.440;2023-05-10T08:59:24;5.97;;;3.17;;
2053;SDS011;1032;52.542;13.440;2023-05-10T09:01:51;5.40;;;3.30;;
2053;SDS011;1032;52.542;13.440;2023-05-10T09:04:20;10.90;;;4.20;;
2053;SDS011;1032;52.542;13.440;2023-05-10T09:06:47;5.40;;;3.30;;
2053;SDS011;1032;52.542;13.440;2023-05-10T09:09:14;4.40;;;3.37;;
2053;SDS011;1032;52.542;13.440;2023-05-10T09:11:42;4.23;;;2.53;;
2053;SDS011;1032;52.542;13.440;2023-05-10T09:14:10;5.57;;;3.00;;
2053;SDS011;1032;52.542;13.440;2023-05-10T09:16:38;4.93;;;3.60;;
2053;SDS011;1032;52.542;13.440;2023-05-10T09:19:05;3.37;;;2.63;;
2053;SDS011;1032;52.542;13.440;2023-05-10T09:21:33;6.68;;;3.05;;
2053;SDS011;1032;52.542;13.440;2023-05-10T09:24:02;7.43;;;3.20;;
2053;SDS011;1032;52.542;13.440;2023-05-10T09:26:29;5.53;;;3.40;;
2053;SDS011;1032;52.542;13.440;2023-05-10T09:28:58;7.60;;;3.38;;
2053;SDS011;1032;52.542;13.440;2023-05-10T09:31:42;5.20;;;3.57;;
2053;SDS011;1032;52.542;13.440;2023-05-10T09:34:11;4.50;;;3.10;;
2053;SDS011;1032;52.542;13.440;2023-05-10T09:36:55;5.03;;;3.47;;
2053;SDS011;1032;52.542;13.440;2023-05-10T09:39:29;4.13;;;3.03;;
2053;SDS011;1032;52.542;13.440;2023-05-10T09:41:57;5.27;;;3.30;;
2053;SDS011;1032;52.542;13.440;2023-05-10T09:44:27;3.70;;;3.10;;
2053;SDS011;1032;52.542;13.440;2023-05-10T09:46:53;6.20;;;2.90;;
2053;SDS011;1032;52.542;13.440;2023-05-10T09:49:20;3.77;;;3.10;;
2053;SDS011;1032;52.542;13.440;2023-05-10T09:51:47;5.07;;;3.40;;
2053;SDS011;1032;52.542;13.440;2023-05-10T09:54:14;7.03;;;3.20;;
2053;SDS011;1032;52.542;13.440;2023-05-10T09:56:41;5.40;;;4.13;;
2053;SDS011;1032;52.542;13.440;2023-05-10T09:59:09;13.97;;;4.60;;
2053;SDS011;1032;52.542;13.440;2023-05-10T10:01:39;11.43;;;3.90;;
2053;SDS011;1032;52.542;13.440;2023-05-10T10:04:06;5.43;;;3.90;;
2053;SDS011;1032;52.542;13.440;2023-05-10T10:06:35;6.43;;;2.87;;
2053;SDS011;1032;52.542;13.440;2023-05-10T10:09:03;6.40;;;3.03;;
2053;SDS011;1032;52.542;13.440;2023-05-10T10:11:30;6.90;;;3.70;;
2053;SDS011;1032;52.542;13.440;2023-05-10T10:13:57;5.77;;;3.03;;
2053;SDS011;1032;52.542;13.440;2023-05-10T10:16:24;7.83;;;3.83;;
2053;SDS011;1032;52.542;13.440;2023-05-10T10:18:53;6.83;;;3.37;;
2053;SDS011;1032;52.542;13.440;2023-05-10T10:21:20;4.70;;;3.03;;
2053;SDS011;1032;52.542;13.440;2023-05-10T10:23:48;6.73;;;2.93;;
2053;SDS011;1032;52.542;13.440;2023-05-10T10:26:15;3.87;;;3.17;;
2053;SDS011;1032;52.542;13.440;2023-05-10T10:28:45;5.47;;;4.00;;
2053;SDS011;1032;52.542;13.440;2023-05-10T10:31:20;4.80;;;3.27;;
2053;SDS011;1032;52.542;13.440;2023-05-10T10:33:59;3.70;;;2.63;;
2053;SDS011;1032;52.542;13.440;2023-05-10T10:36:27;8.63;;;3.30;;
2053;SDS011;1032;52.542;13.440;2023-05-10T10:38:58;5.63;;;3.70;;
2053;SDS011;1032;52.542;13.440;2023-05-10T10:41:29;7.93;;;3.10;;
2053;SDS011;1032;52.542;13.440;2023-05-10T10:46:59;7.53;;;3.10;;
2053;SDS011;1032;52.542;13.440;2023-05-10T10:49:30;6.00;;;3.50;;
2053;SDS011;1032;52.542;13.440;2023-05-10T10:52:12;5.37;;;3.07;;
2053;SDS011;1032;52.542;13.440;2023-05-10T10:54:40;4.47;;;3.33;;
2053;SDS011;1032;52.542;13.440;2023-05-10T10:57:10;7.43;;;4.00;;
2053;SDS011;1032;52.542;13.440;2023-05-10T10:59:41;4.70;;;3.13;;
2053;SDS011;1032;52.542;13.440;2023-05-10T11:02:08;9.40;;;3.00;;
2053;SDS011;1032;52.542;13.440;2023-05-10T11:04:42;8.67;;;3.50;;
2053;SDS011;1032;52.542;13.440;2023-05-10T11:07:17;7.77;;;3.33;;
2053;SDS011;1032;52.542;13.440;2023-05-10T11:09:45;9.53;;;3.37;;
2053;SDS011;1032;52.542;13.440;2023-05-10T11:12:13;4.80;;;3.10;;
2053;SDS011;1032;52.542;13.440;2023-05-10T11:14:39;13.53;;;3.30;;
2053;SDS011;1032;52.542;13.440;2023-05-10T11:25:17;8.13;;;3.00;;
2053;SDS011;1032;52.542;13.440;2023-05-10T11:27:44;4.50;;;2.90;;
2053;SDS011;1032;52.542;13.440;2023-05-10T11:30:11;7.23;;;3.33;;
2053;SDS011;1032;52.542;13.440;2023-05-10T11:32:40;5.00;;;2.97;;
2053;SDS011;1032;52.542;13.440;2023-05-10T11:35:08;8.97;;;3.03;;
2053;SDS011;1032;52.542;13.440;2023-05-10T11:37:36;5.57;;;3.20;;
2053;SDS011;1032;52.542;13.440;2023-05-10T11:40:06;10.40;;;3.70;;
2053;SDS011;1032;52.542;13.440;2023-05-10T11:42:35;9.93;;;3.57;;
2053;SDS011;1032;52.542;13.440;2023-05-10T11:45:03;6.18;;;2.55;;
2053;SDS011;1032;52.542;13.440;2023-05-10T11:47:30;5.37;;;3.03;;
2053;SDS011;1032;52.542;13.440;2023-05-10T11:49:57;4.80;;;3.27;;
2053;SDS011;1032;52.542;13.440;2023-05-10T11:52:25;5.23;;;3.20;;
2053;SDS011;1032;52.542;13.440;2023-05-10T11:54:51;8.90;;;3.20;;
2053;SDS011;1032;52.542;13.440;2023-05-10T11:57:19;23.07;;;20.67;;
2053;SDS011;1032;52.542;13.440;2023-05-10T11:59:46;8.10;;;7.30;;
2053;SDS011;1032;52.542;13.440;2023-05-10T12:02:13;7.20;;;3.10;;
2053;SDS011;1032;52.542;13.440;2023-05-10T12:04:40;7.30;;;3.00;;
2053;SDS011;1032;52.542;13.440;2023-05-10T12:07:08;4.20;;;2.80;;
2053;SDS011;1032;52.542;13.440;2023-05-10T12:09:36;9.10;;;3.40;;
2053;SDS011;1032;52.542;13.440;2023-05-10T12:12:08;9.70;;;3.40;;
2053;SDS011;1032;52.542;13.440;2023-05-10T12:14:34;4.00;;;2.90;;
2053;SDS011;1032;52.542;13.440;2023-05-10T12:17:01;4.47;;;3.07;;
2053;SDS011;1032;52.542;13.440;2023-05-10T12:19:28;5.47;;;3.33;;
2053;SDS011;1032;52.542;13.440;2023-05-10T12:22:04;5.50;;;3.30;;
2053;SDS011;1032;52.542;13.440;2023-05-10T12:24:30;6.13;;;3.57;;
2053;SDS011;1032;52.542;13.440;2023-05-10T12:27:05;8.00;;;3.10;;
2053;SDS011;1032;52.542;13.440;2023-05-10T12:29:34;5.33;;;2.83;;
2053;SDS011;1032;52.542;13.440;2023-05-10T12:32:02;7.40;;;3.97;;
2053;SDS011;1032;52.542;13.440;2023-05-10T12:34:30;10.70;;;2.73;;
2053;SDS011;1032;52.542;13.440;2023-05-10T12:36:58;6.43;;;3.00;;
2053;SDS011;1032;52.542;13.440;2023-05-10T12:39:25;10.93;;;3.37;;
2053;SDS011;1032;52.542;13.440;2023-05-10T12:41:52;4.43;;;3.00;;
2053;SDS011;1032;52.542;13.440;2023-05-10T12:44:20;4.73;;;3.33;;
2053;SDS011;1032;52.542;13.440;2023-05-10T12:46:46;13.00;;;3.30;;
2053;SDS011;1032;52.542;13.440;2023-05-10T12:49:13;7.50;;;3.33;;
2053;SDS011;1032;52.542;13.440;2023-05-10T12:51:40;6.67;;;3.37;;
2053;SDS011;1032;52.542;13.440;2023-05-10T12:54:06;3.13;;;2.70;;
2053;SDS011;1032;52.542;13.440;2023-05-10T12:56:33;11.43;;;3.23;;
2053;SDS011;1032;52.542;13.440;2023-05-10T12:58:59;5.77;;;3.67;;
2053;SDS011;1032;52.542;13.440;2023-05-10T13:01:27;7.90;;;2.97;;
2053;SDS011;1032;52.542;13.440;2023-05-10T13:03:54;5.27;;;2.40;;
2053;SDS011;1032;52.542;13.440;2023-05-10T13:06:20;9.00;;;2.90;;
2053;SDS011;1032;52.542;13.440;2023-05-10T13:08:47;6.67;;;5.47;;
2053;SDS011;1032;52.542;13.440;2023-05-10T13:11:14;3.20;;;2.70;;
2053;SDS011;1032;52.542;13.440;2023-05-10T13:13:41;5.40;;;2.90;;
2053;SDS011;1032;52.542;13.440;2023-05-10T13:16:08;3.70;;;3.30;;
2053;SDS011;1032;52.542;13.440;2023-05-10T13:18:36;9.97;;;3.00;;
2053;SDS011;1032;52.542;13.440;2023-05-10T13:21:02;5.60;;;2.60;;
2053;SDS011;1032;52.542;13.440;2023-05-10T13:23:30;5.93;;;2.37;;
2053;SDS011;1032;52.542;13.440;2023-05-10T13:25:57;3.17;;;2.27;;
2053;SDS011;1032;52.542;13.440;2023-05-10T13:28:23;9.80;;;2.93;;
2053;SDS011;1032;52.542;13.440;2023-05-10T13:30:51;4.97;;;3.47;;
2053;SDS011;1032;52.542;13.440;2023-05-10T13:33:18;7.83;;;3.30;;
2053;SDS011;1032;52.542;13.440;2023-05-10T13:35:45;3.40;;;2.97;;
2053;SDS011;1032;52.542;13.440;2023-05-10T13:38:12;8.13;;;3.50;;
2053;SDS011;1032;52.542;13.440;2023-05-10T13:40:39;3.87;;;3.20;;
2053;SDS011;1032;52.542;13.440;2023-05-10T13:43:05;5.10;;;3.90;;
2053;SDS011;1032;52.542;13.440;2023-05-10T13:45:32;3.20;;;2.73;;
2053;SDS011;1032;52.542;13.440;2023-05-10T13:47:58;10.97;;;2.40;;
2053;SDS011;1032;52.542;13.440;2023-05-10T13:50:25;4.20;;;2.60;;
2053;SDS011;1032;52.542;13.440;2023-05-10T13:52:53;6.13;;;2.80;;
2053;SDS011;1032;52.542;13.440;2023-05-10T13:55:20;7.50;;;3.07;;
2053;SDS011;1032;52.542;13.440;2023-05-10T13:57:47;3.77;;;3.00;;
2053;SDS011;1032;52.542;13.440;2023-05-10T14:00:14;10.80;;;3.67;;
2053;SDS011;1032;52.542;13.440;2023-05-10T14:02:41;22.03;;;3.70;;
2053;SDS011;1032;52.542;13.440;2023-05-10T14:05:08;6.90;;;2.53;;
2053;SDS011;1032;52.542;13.440;2023-05-10T14:07:34;7.63;;;2.40;;
2053;SDS011;1032;52.542;13.440;2023-05-10T14:10:03;8.20;;;3.00;;
2053;SDS011;1032;52.542;13.440;2023-05-10T14:12:30;4.03;;;2.63;;
2053;SDS011;1032;52.542;13.440;2023-05-10T14:14:56;8.43;;;3.40;;
2053;SDS011;1032;52.542;13.440;2023-05-10T14:17:23;9.60;;;3.90;;
2053;SDS011;1032;52.542;13.440;2023-05-10T14:19:50;2.57;;;2.30;;
2053;SDS011;1032;52.542;13.440;2023-05-10T14:22:16;4.10;;;2.97;;
2053;SDS011;1032;52.542;13.440;2023-05-10T14:24:43;11.90;;;10.80;;
2053;SDS011;1032;52.542;13.440;2023-05-10T14:27:13;5.90;;;3.67;;
2053;SDS011;1032;52.542;13.440;2023-05-10T14:29:40;7.93;;;3.07;;
2053;SDS011;1032;52.542;13.440;2023-05-10T14:32:06;4.40;;;3.47;;
2053;SDS011;1032;52.542;13.440;2023-05-10T14:34:33;4.50;;;3.10;;
2053;SDS011;1032;52.542;13.440;2023-05-10T14:37:00;7.40;;;2.63;;
2053;SDS011;1032;52.542;13.440;2023-05-10T14:39:26;8.90;;;3.93;;
2053;SDS011;1032;52.542;13.440;2023-05-10T14:41:54;8.40;;;2.80;;
2053;SDS011;1032;52.542;13.440;2023-05-10T14:44:22;5.10;;;3.27;;
2053;SDS011;1032;52.542;13.440;2023-05-10T14:46:50;2.43;;;2.00;;
2053;SDS011;1032;52.542;13.440;2023-05-10T14:49:16;3.37;;;3.00;;
2053;SDS011;1032;52.542;13.440;2023-05-10T14:51:43;3.53;;;2.70;;
2053;SDS011;1032;52.542;13.440;2023-05-10T14:54:10;3.07;;;2.30;;
2053;SDS011;1032;52.542;13.440;2023-05-10T14:56:37;6.60;;;3.30;;
2053;SDS011;1032;52.542;13.440;2023-05-10T14:59:03;4.33;;;2.63;;
2053;SDS011;1032;52.542;13.440;2023-05-10T15:01:31;10.10;;;3.13;;
2053;SDS011;1032;52.542;13.440;2023-05-10T15:03:59;4.73;;;2.60;;
2053;SDS011;1032;52.542;13.440;2023-05-10T15:06:30;4.47;;;3.00;;
2053;SDS011;1032;52.542;13.440;2023-05-10T15:08:56;4.03;;;2.77;;
2053;SDS011;1032;52.542;13.440;2023-05-10T15:11:23;4.00;;;3.10;;
2053;SDS011;1032;52.542;13.440;2023-05-10T15:13:50;10.13;;;3.10;;
2053;SDS011;1032;52.542;13.440;2023-05-10T15:16:16;3.70;;;2.93;;
2053;SDS011;1032;52.542;13.440;2023-05-10T15:18:45;6.57;;;3.00;;